»·PEaware :: N833GS KSNA-KCRQ

N833GS :: KSNA-KCRQ

FLIGHT INFORMATION

Flight Status: Arrived
Operator: Privately registered:
United States
More flights under this callsign
Pilot: John H. (12167)
Aircraft: CESSNA 172 SKYHAWK
(C172)
More flights by this aircraft type
Origin: KSNA John Wayne-Orange Co
United States
Destination: KCRQ McClellan-Palomar
United States
More flights between these airports :: More routes between these airports
Route: V23 OCN
File this flight plan on PilotEdge
Remarks:
Altitude:
(Current/Filed)
5,000ft
Speed:
(Current/Filed)
120kts
Departed: 22-Feb-21 01:35 PM
Arrived: 22-Feb-21 02:39 PM
Distance/Time
Traveled:
44nm/1:04
Distance/Time
To Go:
Arrived

Flight Plot

Page will automatically refresh every two minutes.


Map Options




Map Legend


Flown Route
Filed Route
Departure Airport
Arrival Airport
Navaid (VOR, NDB)
Fix

Horizontal Profiles

Position Reports

Time Latitude Longitude Heading Altitude Ground
Speed
22-Feb-21 13:22 33.671635 -117.873575 21 60ft 0kts
22-Feb-21 13:23 33.671635 -117.873575 21 60ft 0kts
22-Feb-21 13:24 33.671635 -117.873575 21 60ft 0kts
22-Feb-21 13:25 33.671635 -117.873575 21 60ft 0kts
22-Feb-21 13:26 33.671635 -117.873575 21 60ft 0kts
22-Feb-21 13:27 33.671709 -117.873482 70 60ft 4kts
22-Feb-21 13:28 33.673600 -117.871654 26 60ft 14kts
22-Feb-21 13:29 33.677535 -117.869177 26 60ft 15kts
22-Feb-21 13:30 33.680842 -117.867278 28 60ft 10kts
22-Feb-21 13:31 33.681090 -117.867094 37 60ft 0kts
22-Feb-21 13:32 33.681090 -117.867094 37 60ft 0kts
22-Feb-21 13:33 33.681100 -117.867085 38 60ft 0kts
22-Feb-21 13:34 33.677781 -117.867405 208 66ft 66kts
22-Feb-21 13:35 33.665898 -117.876525 195 716ft 56kts
22-Feb-21 13:36 33.648564 -117.880734 186 1235ft 72kts
22-Feb-21 13:37 33.636739 -117.883320 186 1623ft 73kts
22-Feb-21 13:38 33.626633 -117.885547 186 1944ft 74kts
22-Feb-21 13:39 33.616334 -117.887834 186 2245ft 75kts
22-Feb-21 13:40 33.604454 -117.890424 186 2606ft 82kts
22-Feb-21 13:41 33.586937 -117.893363 158 3211ft 83kts
22-Feb-21 13:42 33.577031 -117.872632 109 3861ft 84kts
22-Feb-21 13:44 33.569274 -117.849948 109 4477ft 85kts
22-Feb-21 13:45 33.562000 -117.830369 111 4971ft 88kts
22-Feb-21 13:46 33.553753 -117.808059 111 5079ft 101kts
22-Feb-21 13:47 33.545268 -117.784927 111 5153ft 105kts
22-Feb-21 13:48 33.531673 -117.762460 129 5204ft 107kts
22-Feb-21 13:49 33.518702 -117.744369 129 5051ft 121kts
22-Feb-21 13:50 33.505720 -117.726172 129 5102ft 109kts
22-Feb-21 13:51 33.493399 -117.708938 128 5177ft 105kts
22-Feb-21 13:52 33.481096 -117.691702 128 5150ft 108kts
22-Feb-21 13:53 33.469130 -117.674953 129 5081ft 107kts
22-Feb-21 13:54 33.457676 -117.660429 133 4999ft 95kts
22-Feb-21 13:55 33.445831 -117.647935 137 5006ft 96kts
22-Feb-21 13:56 33.433309 -117.635016 137 5034ft 98kts
22-Feb-21 13:57 33.420873 -117.622246 140 5011ft 98kts
22-Feb-21 13:58 33.408374 -117.609173 138 5005ft 98kts
22-Feb-21 13:59 33.394063 -117.594095 138 5030ft 97kts
22-Feb-21 14:00 33.379138 -117.578382 138 5039ft 97kts
22-Feb-21 14:01 33.363708 -117.563086 138 5021ft 96kts
22-Feb-21 14:02 33.348731 -117.546804 136 5000ft 96kts
22-Feb-21 14:03 33.334143 -117.530330 136 4998ft 95kts
22-Feb-21 14:04 33.319536 -117.513545 130 5001ft 97kts
22-Feb-21 14:05 33.306415 -117.494778 132 5015ft 97kts
22-Feb-21 14:06 33.287966 -117.472579 135 5027ft 98kts
22-Feb-21 14:06 33.272141 -117.454142 135 5035ft 99kts
22-Feb-21 14:08 33.250598 -117.429073 135 5041ft 99kts
22-Feb-21 14:09 33.239334 -117.407506 92 5043ft 99kts
22-Feb-21 14:09 33.238561 -117.385047 93 5044ft 99kts
22-Feb-21 14:11 33.236905 -117.353380 93 5047ft 99kts
22-Feb-21 14:11 33.235761 -117.331516 93 5048ft 99kts
22-Feb-21 14:12 33.234151 -117.300598 93 5034ft 98kts
22-Feb-21 14:13 33.232514 -117.268963 93 5005ft 97kts
22-Feb-21 14:15 33.230545 -117.231350 93 5018ft 98kts
22-Feb-21 14:16 33.228923 -117.200220 93 5023ft 98kts
22-Feb-21 14:16 33.227807 -117.178736 93 5025ft 98kts
22-Feb-21 14:17 33.226556 -117.154606 93 5027ft 98kts
22-Feb-21 14:18 33.225276 -117.129881 93 5029ft 98kts
22-Feb-21 14:19 33.224022 -117.105603 93 5030ft 98kts
22-Feb-21 14:20 33.222727 -117.080489 93 5031ft 98kts
22-Feb-21 14:21 33.221445 -117.055586 93 5031ft 98kts
22-Feb-21 14:22 33.213906 -117.034929 167 5006ft 100kts
22-Feb-21 14:23 33.196919 -117.043800 214 4850ft 101kts
22-Feb-21 14:24 33.184900 -117.054411 222 4464ft 107kts
22-Feb-21 14:25 33.175660 -117.067056 236 4235ft 99kts
22-Feb-21 14:26 33.168181 -117.080655 237 3967ft 98kts
22-Feb-21 14:27 33.162037 -117.095396 251 3691ft 99kts
22-Feb-21 14:28 33.157758 -117.110682 256 3456ft 96kts
22-Feb-21 14:29 33.154739 -117.126144 256 3200ft 94kts
22-Feb-21 14:30 33.151380 -117.141206 256 2898ft 93kts
22-Feb-21 14:31 33.148417 -117.156510 259 2569ft 94kts
22-Feb-21 14:32 33.145723 -117.172748 260 2148ft 99kts
22-Feb-21 14:33 33.143183 -117.188200 260 1836ft 90kts
22-Feb-21 14:34 33.140943 -117.201958 260 1581ft 81kts
22-Feb-21 14:35 33.138847 -117.214819 259 1354ft 76kts
22-Feb-21 14:36 33.135695 -117.234194 260 1034ft 80kts
22-Feb-21 14:37 33.131965 -117.258860 251 657ft 75kts
22-Feb-21 14:38 33.128887 -117.276320 255 309ft 2kts
22-Feb-21 14:39 33.128061 -117.278861 130 309ft 5kts
22-Feb-21 14:40 33.127791 -117.278525 169 309ft 0kts
22-Feb-21 14:41 33.127791 -117.278525 169 309ft 0kts
22-Feb-21 14:42 33.127779 -117.278522 170 309ft 1kts
22-Feb-21 14:43 33.127295 -117.281053 258 311ft 6kts
22-Feb-21 14:44 33.126865 -117.281457 107 312ft 3kts

Navigation Log

Ident Type
Flight plan parsing failed, navigation log unavailable